Time;durP1;ratioP1;P1;durP2;ratioP2;P2;SDS_P1;SDS_P2;PMS_P1;PMS_P2;Temp;Humidity;BMP_temperature;BMP_pressure;BME280_temperature;BME280_humidity;BME280_pressure;Samples;Min_cycle;Max_cycle;Signal;HPM_P1;HPM_P2
2022/05/15 00:02:24;;;;;;;2.63;2.42;;;21.80;99.90;;;;;;5126475;27;20224;-81
2022/05/15 00:04:57;;;;;;;4.20;2.40;;;21.90;99.90;;;;;;5133065;27;20198;-81
2022/05/15 00:07:28;;;;;;;3.15;2.38;;;22.10;99.90;;;;;;5110860;27;20207;-81
2022/05/15 00:09:59;;;;;;;3.70;2.63;;;22.20;99.90;;;;;;5114199;27;20194;-80
2022/05/15 00:12:30;;;;;;;3.65;2.70;;;22.30;99.90;;;;;;5112600;27;20194;-81
2022/05/15 00:15:01;;;;;;;3.63;2.60;;;22.20;99.90;;;;;;5092211;28;20238;-80
2022/05/15 00:17:32;;;;;;;3.55;2.10;;;22.20;99.90;;;;;;5090000;28;20218;-80
2022/05/15 00:20:04;;;;;;;4.35;2.50;;;22.30;99.90;;;;;;5091906;27;20195;-80
2022/05/15 00:22:40;;;;;;;3.60;2.50;;;22.40;99.90;;;;;;5087990;27;20214;-80
2022/05/15 00:25:11;;;;;;;4.43;2.80;;;22.40;99.90;;;;;;5087230;28;20873;-81
2022/05/15 00:27:42;;;;;;;3.28;2.85;;;22.50;99.90;;;;;;5088783;28;20672;-80
2022/05/15 00:30:14;;;;;;;3.55;2.30;;;22.50;99.90;;;;;;5087568;27;20207;-81
2022/05/15 00:32:45;;;;;;;2.88;2.58;;;22.60;99.90;;;;;;5088884;27;20198;-81
2022/05/15 00:35:18;;;;;;;4.95;2.95;;;22.70;99.90;;;;;;5107784;27;20650;-81
2022/05/15 00:37:48;;;;;;;3.55;2.75;;;22.70;99.90;;;;;;5102388;27;20218;-81
2022/05/15 00:40:22;;;;;;;3.25;2.60;;;22.80;99.90;;;;;;5106463;28;20188;-81
2022/05/15 00:42:53;;;;;;;3.25;2.50;;;22.80;99.90;;;;;;5104883;27;20195;-81
2022/05/15 00:45:25;;;;;;;4.90;2.95;;;22.70;99.90;;;;;;5110032;27;20202;-81
2022/05/15 00:47:56;;;;;;;3.67;2.80;;;22.80;99.90;;;;;;5107137;27;20193;-81
2022/05/15 00:50:33;;;;;;;2.97;2.30;;;22.80;99.90;;;;;;5114185;27;20195;-81
2022/05/15 00:53:10;;;;;;;3.90;2.80;;;22.70;99.90;;;;;;5102401;28;20186;-81
2022/05/15 00:55:45;;;;;;;4.60;2.95;;;22.70;99.90;;;;;;5110923;27;20281;-81
2022/05/15 00:58:20;;;;;;;5.18;3.00;;;22.80;99.90;;;;;;5109068;27;20214;-81
2022/05/15 01:00:51;;;;;;;4.35;2.80;;;22.80;99.90;;;;;;5112486;27;20211;-81
2022/05/15 01:03:23;;;;;;;5.43;3.33;;;22.80;99.90;;;;;;5127386;27;20191;-81
2022/05/15 01:05:58;;;;;;;2.97;2.33;;;22.80;99.90;;;;;;5110935;27;20296;-81
2022/05/15 01:08:30;;;;;;;3.78;2.30;;;22.90;99.90;;;;;;5110109;27;20201;-82
2022/05/15 01:11:08;;;;;;;3.40;2.10;;;22.90;99.90;;;;;;5112494;27;20244;-81
2022/05/15 01:13:40;;;;;;;2.78;2.45;;;22.90;99.90;;;;;;5115557;27;20248;-79
2022/05/15 01:16:11;;;;;;;2.92;2.47;;;23.00;99.90;;;;;;5106042;27;20251;-80
2022/05/15 01:18:43;;;;;;;2.88;2.53;;;23.00;99.90;;;;;;5112607;27;20272;-80
2022/05/15 01:21:30;;;;;;;4.13;2.42;;;23.00;99.90;;;;;;5112358;27;20183;-80
2022/05/15 01:24:01;;;;;;;3.00;2.38;;;23.10;99.90;;;;;;5108314;27;20642;-82
2022/05/15 01:26:32;;;;;;;3.78;2.45;;;23.20;99.90;;;;;;5122170;27;20213;-81
2022/05/15 01:29:04;;;;;;;3.58;2.40;;;23.30;99.90;;;;;;5114887;27;20662;-82
2022/05/15 01:31:37;;;;;;;2.45;2.25;;;23.30;99.90;;;;;;5090201;27;20251;-82
2022/05/15 01:34:10;;;;;;;2.40;2.20;;;23.30;99.90;;;;;;5087130;28;21919;-81
2022/05/15 01:36:43;;;;;;;2.42;2.17;;;23.30;99.90;;;;;;5085947;27;20892;-82
2022/05/15 01:39:13;;;;;;;4.03;2.70;;;23.30;99.90;;;;;;5086206;27;20722;-82
2022/05/15 01:41:44;;;;;;;3.17;2.80;;;23.30;99.90;;;;;;5103978;27;20216;-81
2022/05/15 01:44:15;;;;;;;2.35;2.15;;;23.30;99.90;;;;;;5110387;27;20198;-81
2022/05/15 01:46:46;;;;;;;2.80;2.30;;;23.30;99.90;;;;;;5108108;27;20199;-83
2022/05/15 01:49:16;;;;;;;3.60;2.08;;;23.30;99.90;;;;;;5116635;27;20198;-82
2022/05/15 01:51:49;;;;;;;3.72;2.35;;;23.40;99.90;;;;;;5112027;27;20230;-82
2022/05/15 01:54:20;;;;;;;3.45;2.00;;;23.50;99.90;;;;;;5112210;27;20657;-81
2022/05/15 01:56:50;;;;;;;2.17;1.70;;;23.60;99.90;;;;;;5109005;27;20662;-81
2022/05/15 01:59:21;;;;;;;3.67;1.98;;;23.70;99.90;;;;;;5111579;27;20218;-81
2022/05/15 02:01:52;;;;;;;2.85;2.10;;;23.70;99.90;;;;;;5110460;27;20437;-81
2022/05/15 02:04:23;;;;;;;2.63;1.77;;;23.80;99.90;;;;;;5111158;28;20211;-81
2022/05/15 02:06:55;;;;;;;1.75;1.65;;;23.90;99.90;;;;;;5108763;28;20194;-81
2022/05/15 02:09:26;;;;;;;1.85;1.75;;;23.90;99.90;;;;;;5119126;27;20198;-82
2022/05/15 02:11:57;;;;;;;3.35;1.90;;;23.90;99.90;;;;;;5109428;28;20697;-82
2022/05/15 02:14:28;;;;;;;2.15;1.73;;;24.00;99.90;;;;;;5106693;28;20304;-82
2022/05/15 02:16:59;;;;;;;2.30;1.77;;;24.00;99.90;;;;;;5109072;27;20183;-82
2022/05/15 02:19:30;;;;;;;2.90;2.00;;;24.00;99.90;;;;;;5111018;28;20218;-82
2022/05/15 02:22:02;;;;;;;2.25;1.90;;;24.20;99.90;;;;;;5110509;27;20641;-82
2022/05/15 02:24:33;;;;;;;2.00;1.90;;;24.40;99.90;;;;;;5107671;28;20210;-81
2022/05/15 02:27:03;;;;;;;2.95;1.85;;;24.50;99.90;;;;;;5112440;27;20708;-82
2022/05/15 02:29:34;;;;;;;1.70;1.60;;;24.50;99.90;;;;;;5122446;27;20194;-82
2022/05/15 02:32:05;;;;;;;2.10;1.60;;;24.50;99.90;;;;;;5113780;27;20190;-81
2022/05/15 02:34:38;;;;;;;3.28;1.88;;;24.50;99.90;;;;;;5110808;28;20190;-82
2022/05/15 02:37:12;;;;;;;2.03;1.67;;;24.50;99.90;;;;;;5110359;28;20645;-81
2022/05/15 02:39:43;;;;;;;1.77;1.67;;;24.60;99.90;;;;;;5102516;28;20271;-81
2022/05/15 02:42:13;;;;;;;2.10;1.90;;;24.50;99.90;;;;;;5111921;28;20251;-79
2022/05/15 02:44:44;;;;;;;2.55;1.65;;;24.50;99.90;;;;;;5106368;28;20665;-80
2022/05/15 02:47:15;;;;;;;2.58;1.75;;;24.50;99.90;;;;;;5104698;28;20191;-80
2022/05/15 02:52:34;;;;;;;1.70;1.60;;;24.50;99.90;;;;;;5109470;28;20272;-79
2022/05/15 02:55:04;;;;;;;2.15;0.80;;;24.50;99.90;;;;;;5110537;28;20187;-80
2022/05/15 02:57:35;;;;;;;3.47;1.20;;;24.40;99.90;;;;;;5110866;28;20196;-81
2022/05/15 03:00:08;;;;;;;4.00;1.30;;;24.40;99.90;;;;;;5123486;28;20209;-81
2022/05/15 03:02:39;;;;;;;1.85;1.00;;;24.40;99.90;;;;;;5111115;28;20218;-86
2022/05/15 03:05:12;;;;;;;1.48;1.30;;;24.40;99.90;;;;;;5109366;28;20198;-81
2022/05/15 03:07:44;;;;;;;1.73;1.15;;;24.40;99.90;;;;;;5108948;28;20244;-80
2022/05/15 03:10:16;;;;;;;2.20;1.00;;;24.40;99.90;;;;;;5116978;28;20287;-80
2022/05/15 03:12:47;;;;;;;0.88;0.82;;;24.40;99.90;;;;;;5115449;28;20653;-79
2022/05/15 03:15:20;;;;;;;0.60;0.60;;;24.30;99.90;;;;;;5107820;28;20739;-81
2022/05/15 03:17:50;;;;;;;2.38;0.88;;;24.30;99.90;;;;;;5107364;28;20187;-79
2022/05/15 03:20:27;;;;;;;1.20;0.77;;;24.30;99.90;;;;;;5116966;28;20227;-82
2022/05/15 03:23:00;;;;;;;1.92;0.70;;;24.30;99.90;;;;;;5115959;27;20217;-82
2022/05/15 03:25:33;;;;;;;0.80;0.70;;;24.30;99.90;;;;;;5110691;28;20598;-82
2022/05/15 03:28:09;;;;;;;0.68;0.40;;;24.30;99.90;;;;;;5110639;28;20209;-81
2022/05/15 03:30:40;;;;;;;0.40;0.40;;;24.20;99.90;;;;;;5109970;28;20190;-80
2022/05/15 03:33:12;;;;;;;0.98;0.75;;;24.30;99.90;;;;;;5097362;27;20211;-80
2022/05/15 03:35:46;;;;;;;1.25;0.70;;;24.30;99.90;;;;;;5127479;27;20252;-80
2022/05/15 03:38:19;;;;;;;1.67;0.80;;;24.30;99.90;;;;;;5144355;27;20221;-79
2022/05/15 03:40:50;;;;;;;1.25;0.95;;;24.40;99.90;;;;;;5114264;27;20906;-80
2022/05/15 03:43:20;;;;;;;1.45;1.02;;;24.50;99.90;;;;;;5097001;27;20253;-82
2022/05/15 03:45:51;;;;;;;1.67;1.00;;;24.50;99.90;;;;;;5097826;27;20279;-80
2022/05/15 03:48:21;;;;;;;1.52;1.02;;;24.50;99.90;;;;;;5098336;27;20562;-80
2022/05/15 03:50:52;;;;;;;1.02;0.98;;;24.40;99.90;;;;;;5120944;27;20214;-80
2022/05/15 03:53:26;;;;;;;1.10;0.90;;;24.40;99.90;;;;;;5116919;27;20219;-82
2022/05/15 03:55:58;;;;;;;0.90;0.80;;;24.40;99.90;;;;;;5113906;27;20203;-80
2022/05/15 03:58:30;;;;;;;1.10;0.88;;;24.40;99.90;;;;;;5112849;27;20303;-80
2022/05/15 04:01:01;;;;;;;1.27;1.00;;;24.40;99.90;;;;;;5116049;28;20661;-80
2022/05/15 04:03:31;;;;;;;0.93;0.93;;;24.40;99.90;;;;;;5110368;27;20202;-80
2022/05/15 04:06:02;;;;;;;1.85;0.90;;;24.40;99.90;;;;;;5111822;28;20224;-80
2022/05/15 04:08:35;;;;;;;1.80;1.17;;;24.40;99.90;;;;;;5107838;27;20190;-80
2022/05/15 04:11:05;;;;;;;1.65;1.17;;;24.40;99.90;;;;;;5111072;28;20190;-81
2022/05/15 04:13:36;;;;;;;1.30;1.20;;;24.40;99.90;;;;;;5112493;27;20214;-80
2022/05/15 04:16:07;;;;;;;2.35;1.50;;;24.40;99.90;;;;;;5111033;27;20252;-80
2022/05/15 04:18:37;;;;;;;4.07;1.48;;;24.50;99.90;;;;;;5103093;27;20218;-80
2022/05/15 04:21:08;;;;;;;3.45;1.70;;;24.40;99.90;;;;;;5105569;28;20198;-80
2022/05/15 04:23:40;;;;;;;3.97;1.73;;;24.40;99.90;;;;;;5112471;27;20558;-80
2022/05/15 04:26:11;;;;;;;3.75;1.80;;;24.40;99.90;;;;;;5108131;27;20229;-80
2022/05/15 04:28:42;;;;;;;5.97;2.00;;;24.40;99.90;;;;;;5113289;27;20660;-80
2022/05/15 04:31:12;;;;;;;2.20;1.35;;;24.30;99.90;;;;;;5116992;27;20725;-80
2022/05/15 04:33:43;;;;;;;2.80;1.73;;;24.30;99.90;;;;;;5112158;27;20202;-80
2022/05/15 04:36:14;;;;;;;5.93;1.90;;;24.20;99.90;;;;;;5112533;27;20215;-80
2022/05/15 04:38:46;;;;;;;4.75;2.15;;;24.20;99.90;;;;;;5111665;27;20696;-80
2022/05/15 04:41:17;;;;;;;3.10;2.00;;;24.10;99.90;;;;;;5119309;27;20205;-80
2022/05/15 04:43:47;;;;;;;7.70;2.20;;;24.10;99.90;;;;;;5112411;27;20235;-80
2022/05/15 04:46:18;;;;;;;6.97;2.50;;;24.10;99.90;;;;;;5108174;27;20195;-80
2022/05/15 04:48:48;;;;;;;5.40;2.05;;;24.10;99.90;;;;;;5107263;27;20198;-80
2022/05/15 04:51:19;;;;;;;4.15;2.20;;;24.00;99.90;;;;;;5104910;27;20219;-81
2022/05/15 04:53:51;;;;;;;5.88;2.38;;;24.00;99.90;;;;;;5103820;28;20199;-80
2022/05/15 04:56:22;;;;;;;3.72;2.30;;;23.90;99.90;;;;;;5125129;27;20669;-80
2022/05/15 04:58:53;;;;;;;3.72;2.03;;;23.90;99.90;;;;;;5116841;27;20291;-81
2022/05/15 05:01:25;;;;;;;3.80;2.20;;;23.80;99.90;;;;;;5130733;27;20669;-81
2022/05/15 05:03:57;;;;;;;4.13;2.13;;;23.70;99.90;;;;;;5103558;28;20194;-81
2022/05/15 05:06:29;;;;;;;5.13;2.38;;;23.70;99.90;;;;;;5111017;28;20198;-81
2022/05/15 05:09:01;;;;;;;6.57;2.42;;;23.60;99.90;;;;;;5103791;27;20718;-80
2022/05/15 05:11:32;;;;;;;4.05;2.30;;;23.50;99.90;;;;;;5112152;27;20267;-81
2022/05/15 05:14:03;;;;;;;6.93;2.03;;;23.50;99.90;;;;;;5103011;28;20229;-80
2022/05/15 05:16:33;;;;;;;4.78;2.33;;;23.40;99.90;;;;;;5113838;27;20194;-80
2022/05/15 05:19:04;;;;;;;4.50;2.10;;;23.40;99.90;;;;;;5112115;27;20238;-80
2022/05/15 05:21:35;;;;;;;5.22;2.00;;;23.30;99.90;;;;;;5110876;28;20199;-81
2022/05/15 05:24:08;;;;;;;4.78;1.73;;;23.20;99.90;;;;;;5109468;27;20681;-81
2022/05/15 05:26:39;;;;;;;3.83;2.08;;;23.20;99.90;;;;;;5110547;27;20195;-80
2022/05/15 05:29:09;;;;;;;5.63;2.65;;;23.20;99.90;;;;;;5111844;27;20202;-81
2022/05/15 05:31:40;;;;;;;4.07;2.00;;;23.10;99.90;;;;;;5113856;27;20342;-81
2022/05/15 05:34:11;;;;;;;4.97;2.28;;;23.10;99.90;;;;;;5111120;27;20198;-81
2022/05/15 05:36:41;;;;;;;5.40;2.45;;;23.10;99.90;;;;;;5110517;27;20187;-80
2022/05/15 05:39:14;;;;;;;3.47;2.30;;;23.00;99.90;;;;;;5108010;27;20222;-80
2022/05/15 05:41:45;;;;;;;5.05;2.28;;;22.90;99.90;;;;;;5111854;27;20197;-81
2022/05/15 05:44:15;;;;;;;6.28;2.67;;;22.90;99.90;;;;;;5104939;27;20607;-80
2022/05/15 05:46:46;;;;;;;6.63;2.65;;;22.90;99.90;;;;;;5102495;27;20280;-81
2022/05/15 05:49:17;;;;;;;4.20;2.20;;;22.90;99.90;;;;;;5118995;27;20193;-80
2022/05/15 05:51:47;;;;;;;7.53;2.28;;;22.80;99.90;;;;;;5105795;27;20190;-81
2022/05/15 05:54:20;;;;;;;5.80;2.13;;;22.80;99.90;;;;;;5107320;27;20295;-81
2022/05/15 05:56:50;;;;;;;3.30;2.10;;;22.80;99.90;;;;;;5098674;28;20206;-81
2022/05/15 05:59:21;;;;;;;4.88;2.10;;;22.80;99.90;;;;;;5117789;27;20301;-81
2022/05/15 06:01:52;;;;;;;3.25;2.03;;;22.80;99.90;;;;;;5113041;27;20219;-81
2022/05/15 06:07:09;;;;;;;3.08;1.90;;;22.70;99.90;;;;;;5115386;27;20294;-81
2022/05/15 06:09:43;;;;;;;3.40;2.00;;;22.70;99.90;;;;;;5091367;27;20215;-81
2022/05/15 06:12:15;;;;;;;3.90;2.10;;;22.70;99.90;;;;;;5096606;27;20555;-80
2022/05/15 06:14:46;;;;;;;4.03;1.95;;;22.60;99.90;;;;;;5084212;27;20230;-80
2022/05/15 06:17:17;;;;;;;4.75;1.95;;;22.60;99.90;;;;;;5102894;28;20214;-81
2022/05/15 06:19:47;;;;;;;4.53;2.20;;;22.60;99.90;;;;;;5115817;27;20697;-82
2022/05/15 06:22:18;;;;;;;5.65;2.35;;;22.60;99.90;;;;;;5103266;27;20210;-82
2022/05/15 06:24:51;;;;;;;7.03;1.83;;;22.50;99.90;;;;;;5109099;28;20243;-82
2022/05/15 06:27:21;;;;;;;4.18;1.90;;;22.50;99.90;;;;;;5110759;28;20194;-81
2022/05/15 06:29:56;;;;;;;4.45;2.20;;;22.50;99.90;;;;;;5110629;28;20218;-82
2022/05/15 06:32:27;;;;;;;5.40;2.30;;;22.50;99.90;;;;;;5102573;28;20190;-81
2022/05/15 06:34:59;;;;;;;4.60;2.00;;;22.50;99.90;;;;;;5110630;28;20282;-82
2022/05/15 06:37:30;;;;;;;5.13;2.03;;;22.40;99.90;;;;;;5105943;27;20225;-81
2022/05/15 06:40:02;;;;;;;3.78;1.95;;;22.40;99.90;;;;;;5107009;28;20237;-82
2022/05/15 06:42:34;;;;;;;6.38;2.20;;;22.40;99.90;;;;;;5119633;28;20189;-81
2022/05/15 06:45:07;;;;;;;5.13;2.15;;;22.40;99.90;;;;;;5107692;28;20230;-81
2022/05/15 06:47:38;;;;;;;3.88;2.00;;;22.40;99.90;;;;;;5118533;28;20217;-82
2022/05/15 06:50:10;;;;;;;3.03;1.73;;;22.40;99.90;;;;;;5108219;28;20193;-81
2022/05/15 06:52:41;;;;;;;3.42;1.88;;;22.30;99.90;;;;;;5110734;27;20656;-81
2022/05/15 06:55:16;;;;;;;3.55;1.88;;;22.30;99.90;;;;;;5108283;28;20195;-81
2022/05/15 06:57:47;;;;;;;4.60;1.98;;;22.30;99.90;;;;;;5111681;28;20546;-81
2022/05/15 07:00:20;;;;;;;3.83;2.05;;;22.30;99.90;;;;;;5110864;28;20217;-81
2022/05/15 07:02:51;;;;;;;3.58;1.90;;;22.30;99.90;;;;;;5108409;28;20194;-81
2022/05/15 07:05:27;;;;;;;3.63;1.95;;;22.30;99.90;;;;;;5110992;28;20232;-81
2022/05/15 07:07:58;;;;;;;3.78;2.28;;;22.30;99.90;;;;;;5108841;28;20714;-81
2022/05/15 07:10:30;;;;;;;4.43;2.08;;;22.20;99.90;;;;;;5114964;27;20199;-80
2022/05/15 07:13:01;;;;;;;5.47;2.42;;;22.30;99.90;;;;;;5107324;27;20195;-79
2022/05/15 07:15:32;;;;;;;4.65;2.17;;;22.20;99.90;;;;;;5119073;27;20227;-81
2022/05/15 07:18:02;;;;;;;2.35;1.98;;;22.20;99.90;;;;;;5102525;27;20222;-80
2022/05/15 07:20:37;;;;;;;3.88;2.00;;;22.20;99.90;;;;;;5109616;27;20777;-80
2022/05/15 07:23:08;;;;;;;7.15;2.20;;;22.20;99.90;;;;;;5111058;28;20674;-80
2022/05/15 07:25:41;;;;;;;2.15;1.70;;;22.20;99.90;;;;;;5115497;27;20195;-79
2022/05/15 07:28:11;;;;;;;4.80;2.20;;;22.20;99.90;;;;;;5127990;27;20201;-80
2022/05/15 07:30:43;;;;;;;1.75;1.60;;;22.20;99.90;;;;;;5137160;28;20191;-80
2022/05/15 07:33:13;;;;;;;2.05;1.52;;;22.20;99.90;;;;;;5134404;27;20199;-80
2022/05/15 07:35:44;;;;;;;3.08;1.80;;;22.20;99.90;;;;;;5124179;27;20214;-79
2022/05/15 07:38:14;;;;;;;3.92;2.97;;;22.20;99.90;;;;;;5104735;27;20187;-78
2022/05/15 07:40:48;;;;;;;4.80;4.18;;;22.20;99.90;;;;;;5116288;28;20263;-80
2022/05/15 07:43:18;;;;;;;4.65;4.20;;;22.20;99.90;;;;;;5116553;27;20849;-80
2022/05/15 07:45:49;;;;;;;4.53;3.60;;;22.20;99.90;;;;;;5102275;27;20260;-80
2022/05/15 07:48:20;;;;;;;4.50;2.90;;;22.20;99.90;;;;;;5112619;27;20214;-79
2022/05/15 07:50:54;;;;;;;6.85;2.72;;;22.20;99.90;;;;;;5106410;27;21928;-80
2022/05/15 07:53:25;;;;;;;7.03;3.78;;;22.20;99.90;;;;;;5110241;27;20712;-79
2022/05/15 07:56:03;;;;;;;8.00;4.50;;;22.20;99.90;;;;;;5113643;27;20225;-79
2022/05/15 07:58:34;;;;;;;6.13;4.00;;;22.20;99.90;;;;;;5119178;28;20186;-79
2022/05/15 08:01:05;;;;;;;7.85;3.50;;;22.20;99.90;;;;;;5104846;28;20219;-78
2022/05/15 08:03:38;;;;;;;6.40;3.60;;;22.20;99.90;;;;;;5114886;28;20657;-80
2022/05/15 08:08:56;;;;;;;6.22;2.80;;;22.10;99.90;;;;;;5112535;27;20307;-80
2022/05/15 08:11:29;;;;;;;4.63;2.67;;;22.10;99.90;;;;;;5100682;28;20275;-80
2022/05/15 08:14:00;;;;;;;6.32;2.70;;;22.10;99.90;;;;;;5129594;27;20193;-81
2022/05/15 08:16:31;;;;;;;4.32;2.30;;;22.10;99.90;;;;;;5114040;27;20198;-80
2022/05/15 08:24:35;;;;;;;5.07;2.90;;;22.10;99.90;;;;;;5103477;28;20201;-81
2022/05/15 08:27:09;;;;;;;4.25;2.50;;;22.10;99.90;;;;;;5110981;27;20198;-76
2022/05/15 08:29:40;;;;;;;4.82;2.53;;;22.10;99.90;;;;;;5116415;27;20198;-75
2022/05/15 08:32:12;;;;;;;5.07;2.88;;;22.10;99.90;;;;;;5109624;27;20198;-76
2022/05/15 08:34:42;;;;;;;8.38;3.88;;;22.10;99.90;;;;;;5109678;27;20296;-76
2022/05/15 08:37:13;;;;;;;5.40;3.58;;;22.10;99.90;;;;;;5111713;27;20198;-78
2022/05/15 08:39:43;;;;;;;6.63;3.95;;;22.20;99.90;;;;;;5108498;27;20202;-76
2022/05/15 08:42:24;;;;;;;9.02;4.40;;;22.10;99.90;;;;;;5108566;27;20190;-76
2022/05/15 08:45:00;;;;;;;7.68;4.22;;;22.10;99.90;;;;;;5100056;27;20307;-79
2022/05/15 08:47:37;;;;;;;7.07;4.10;;;22.10;99.90;;;;;;5106700;28;20236;-75
2022/05/15 08:50:12;;;;;;;9.60;4.50;;;22.10;99.90;;;;;;5113704;28;20194;-75
2022/05/15 08:52:52;;;;;;;7.60;5.00;;;22.10;99.90;;;;;;5113528;27;20194;-75
2022/05/15 08:55:26;;;;;;;8.45;5.32;;;22.10;99.90;;;;;;5109889;27;20607;-77
2022/05/15 08:58:00;;;;;;;8.82;4.57;;;22.10;99.90;;;;;;5111777;28;20246;-75
2022/05/15 09:00:33;;;;;;;7.15;4.05;;;22.10;99.90;;;;;;5116687;27;20225;-75
2022/05/15 09:03:18;;;;;;;5.00;3.63;;;22.10;99.90;;;;;;5112614;27;20254;-75
2022/05/15 09:05:55;;;;;;;9.63;4.40;;;22.10;99.90;;;;;;5112246;27;20193;-75
2022/05/15 09:08:57;;;;;;;7.32;3.95;;;22.10;99.90;;;;;;5107561;28;20710;-74
2022/05/15 09:11:46;;;;;;;6.32;3.75;;;22.10;99.90;;;;;;5107494;27;20629;-74
2022/05/15 09:14:23;;;;;;;6.15;2.97;;;22.10;99.90;;;;;;5116479;27;20229;-76
2022/05/15 09:16:58;;;;;;;6.20;3.58;;;22.10;99.90;;;;;;5112093;27;20194;-76
2022/05/15 09:19:28;;;;;;;7.28;4.15;;;22.20;99.90;;;;;;5101599;28;20702;-76
2022/05/15 09:22:01;;;;;;;8.00;4.15;;;22.20;99.90;;;;;;5111735;27;20218;-75
2022/05/15 09:24:36;;;;;;;8.55;3.90;;;22.10;99.90;;;;;;5099655;27;20277;-75
2022/05/15 09:27:17;;;;;;;6.78;3.97;;;22.20;99.90;;;;;;5112802;27;20250;-76
2022/05/15 09:29:55;;;;;;;5.82;3.22;;;22.20;99.90;;;;;;5114355;27;20186;-76
2022/05/15 09:32:38;;;;;;;8.02;4.38;;;22.20;99.90;;;;;;5112931;27;20197;-76
2022/05/15 09:35:28;;;;;;;7.97;4.43;;;22.20;99.90;;;;;;5111583;28;20607;-76
2022/05/15 09:43:30;;;;;;;8.50;5.45;;;22.10;99.90;;;;;;5111447;28;20225;-76
2022/05/15 09:43:39;;;;;;;7.80;4.72;;;22.10;99.90;;;;;;5109675;27;20202;-76
2022/05/15 09:46:16;;;;;;;7.55;4.43;;;22.10;99.90;;;;;;5108098;28;20194;-75
2022/05/15 09:48:56;;;;;;;8.77;4.60;;;22.10;99.90;;;;;;5112415;27;20748;-75
2022/05/15 09:51:38;;;;;;;8.70;4.60;;;22.00;99.90;;;;;;5111275;27;20265;-75
2022/05/15 09:54:09;;;;;;;8.85;4.40;;;22.00;99.90;;;;;;5108533;28;20198;-75
2022/05/15 09:56:40;;;;;;;6.97;4.20;;;22.00;99.90;;;;;;5111263;28;20194;-74
2022/05/15 09:59:15;;;;;;;5.53;4.35;;;21.90;99.90;;;;;;5103113;28;20273;-74
2022/05/15 10:02:00;;;;;;;6.90;4.68;;;21.90;99.90;;;;;;5111157;28;20349;-75
2022/05/15 10:04:32;;;;;;;8.75;4.25;;;21.80;99.90;;;;;;5113790;27;20191;-76
2022/05/15 10:07:04;;;;;;;8.27;4.82;;;21.80;99.90;;;;;;5110424;27;20240;-75
2022/05/15 10:09:38;;;;;;;9.98;6.45;;;21.80;99.90;;;;;;5112252;27;20194;-75
2022/05/15 10:12:13;;;;;;;9.38;6.40;;;21.80;99.90;;;;;;5111011;27;20255;-75
2022/05/15 10:14:49;;;;;;;9.38;5.25;;;21.80;99.90;;;;;;5109376;27;20659;-74
2022/05/15 10:17:24;;;;;;;9.65;6.00;;;21.80;99.90;;;;;;5111190;27;20194;-75
2022/05/15 10:19:59;;;;;;;10.15;6.40;;;21.80;99.90;;;;;;5105810;27;20745;-77
2022/05/15 10:22:39;;;;;;;11.20;6.93;;;21.80;99.90;;;;;;5118040;27;20198;-75
2022/05/15 10:25:21;;;;;;;9.63;5.93;;;21.80;99.90;;;;;;5108397;27;20198;-76
2022/05/15 10:27:56;;;;;;;9.35;5.70;;;21.70;99.90;;;;;;5103763;27;20215;-76
2022/05/15 10:30:33;;;;;;;5.97;5.00;;;21.70;99.90;;;;;;5109328;28;20253;-75
2022/05/15 10:33:10;;;;;;;7.28;5.28;;;21.70;99.90;;;;;;5105185;28;20194;-75
2022/05/15 10:35:48;;;;;;;8.65;5.07;;;21.60;99.90;;;;;;5120992;27;20258;-75
2022/05/15 10:38:32;;;;;;;5.57;4.53;;;21.60;99.90;;;;;;5110501;27;20607;-75
2022/05/15 10:41:14;;;;;;;7.10;4.60;;;21.60;99.90;;;;;;5103953;28;20230;-75
2022/05/15 10:44:02;;;;;;;6.63;4.20;;;21.60;99.90;;;;;;5109058;28;20198;-75
2022/05/15 10:46:41;;;;;;;12.27;4.70;;;21.60;99.90;;;;;;5107664;28;20251;-75
2022/05/15 10:49:35;;;;;;;8.05;4.82;;;21.60;99.90;;;;;;5103255;28;20195;-74
2022/05/15 10:52:15;;;;;;;6.28;4.82;;;21.60;99.90;;;;;;5112662;28;20198;-75
2022/05/15 10:57:49;;;;;;;6.18;4.70;;;21.40;99.90;;;;;;5113608;28;20201;-74
2022/05/15 11:00:33;;;;;;;7.45;4.43;;;21.40;99.90;;;;;;5102358;28;20190;-74
2022/05/15 11:03:35;;;;;;;6.13;4.25;;;21.40;99.90;;;;;;5109058;28;20201;-74
2022/05/15 11:06:31;;;;;;;8.10;4.53;;;21.40;99.90;;;;;;5110305;28;20191;-74
2022/05/15 11:09:08;;;;;;;7.18;4.45;;;21.40;99.90;;;;;;5108387;28;20194;-74
2022/05/15 11:11:50;;;;;;;6.82;4.35;;;21.30;99.90;;;;;;5104759;28;20732;-74
2022/05/15 11:14:28;;;;;;;6.63;4.57;;;21.30;99.90;;;;;;5108115;28;20218;-74
2022/05/15 11:17:11;;;;;;;7.32;5.15;;;21.30;99.90;;;;;;5110266;28;20190;-74
2022/05/15 11:19:44;;;;;;;8.52;4.05;;;21.30;99.90;;;;;;5109812;28;20259;-74
2022/05/15 11:22:26;;;;;;;5.55;4.03;;;21.30;99.90;;;;;;5110109;28;20705;-75
2022/05/15 11:25:04;;;;;;;6.32;4.20;;;21.30;99.90;;;;;;5100903;28;20574;-76
2022/05/15 11:27:44;;;;;;;8.77;5.43;;;21.30;99.90;;;;;;5110464;28;20202;-77
2022/05/15 11:30:20;;;;;;;8.32;4.60;;;21.30;99.90;;;;;;5111569;28;20214;-76
2022/05/15 11:33:12;;;;;;;8.10;4.80;;;21.30;99.90;;;;;;5110338;28;20190;-76
2022/05/15 11:35:43;;;;;;;8.25;4.97;;;21.30;99.90;;;;;;5109684;28;20199;-76
2022/05/15 11:38:28;;;;;;;8.68;5.30;;;21.30;99.90;;;;;;5110163;28;20236;-76
2022/05/15 11:40:59;;;;;;;7.82;5.13;;;21.30;99.90;;;;;;5108777;28;20317;-75
2022/05/15 11:43:59;;;;;;;7.38;4.72;;;21.30;99.90;;;;;;5109995;28;20199;-76
2022/05/15 11:47:02;;;;;;;7.50;5.30;;;21.30;99.90;;;;;;5105126;28;20259;-76
2022/05/15 11:49:39;;;;;;;8.18;5.38;;;21.20;99.90;;;;;;5106621;28;20186;-75
2022/05/15 11:52:35;;;;;;;7.85;4.80;;;21.20;99.90;;;;;;5109245;28;20615;-76
2022/05/15 11:55:36;;;;;;;6.40;4.72;;;21.20;99.90;;;;;;5107802;28;20194;-77
2022/05/15 11:58:19;;;;;;;5.30;4.18;;;21.20;99.90;;;;;;5113446;27;20187;-76
2022/05/15 12:01:16;;;;;;;5.40;4.20;;;21.20;99.90;;;;;;5113223;28;20222;-76
2022/05/15 12:03:50;;;;;;;7.25;4.10;;;21.10;99.90;;;;;;5120510;27;20190;-76
2022/05/15 12:06:24;;;;;;;6.80;4.10;;;21.10;99.90;;;;;;5113412;27;20190;-80
2022/05/15 12:09:14;;;;;;;6.45;4.20;;;21.10;99.90;;;;;;5107787;27;20653;-80
2022/05/15 12:11:48;;;;;;;5.70;4.07;;;21.10;99.90;;;;;;5105467;28;20194;-81
2022/05/15 12:14:36;;;;;;;5.45;3.83;;;21.10;99.90;;;;;;5113260;27;20279;-79
2022/05/15 12:17:25;;;;;;;8.05;4.18;;;21.10;99.90;;;;;;5113325;27;20194;-78
2022/05/15 12:20:07;;;;;;;6.18;4.15;;;21.00;99.90;;;;;;5113026;27;20933;-79
2022/05/15 12:22:41;;;;;;;8.38;4.10;;;21.00;99.90;;;;;;5112806;27;20241;-80
2022/05/15 12:25:16;;;;;;;5.43;3.80;;;20.90;99.90;;;;;;5109648;27;20661;-79
2022/05/15 12:28:50;;;;;;;5.55;3.88;;;20.90;99.90;;;;;;5111448;27;20724;-78
2022/05/15 12:30:51;;;;;;;5.63;3.97;;;20.90;99.90;;;;;;5113157;28;20192;-81
2022/05/15 12:33:27;;;;;;;5.95;4.10;;;20.90;99.90;;;;;;5112283;27;20191;-80
2022/05/15 12:35:59;;;;;;;8.00;4.10;;;20.80;99.90;;;;;;5121148;27;20250;-80
2022/05/15 12:38:32;;;;;;;6.30;4.07;;;20.80;99.90;;;;;;5112928;27;20194;-79
2022/05/15 12:41:06;;;;;;;8.88;4.28;;;20.80;99.90;;;;;;5112262;28;20301;-80
2022/05/15 12:43:44;;;;;;;7.80;3.55;;;20.80;99.90;;;;;;5111618;27;20201;-80
2022/05/15 12:46:27;;;;;;;4.32;3.60;;;20.80;99.90;;;;;;5118812;27;20252;-80
2022/05/15 12:48:58;;;;;;;5.40;3.30;;;20.70;99.90;;;;;;5126627;27;20275;-80
2022/05/15 12:51:30;;;;;;;5.88;3.35;;;20.70;99.90;;;;;;5104676;27;20195;-80
2022/05/15 12:54:03;;;;;;;3.22;2.53;;;20.70;99.90;;;;;;5113557;27;20252;-81
2022/05/15 12:56:35;;;;;;;4.00;2.47;;;20.70;99.90;;;;;;5104794;27;20322;-80
2022/05/15 12:59:13;;;;;;;3.30;2.60;;;20.60;99.90;;;;;;5110502;28;20202;-80
2022/05/15 13:01:44;;;;;;;4.95;2.63;;;20.60;99.90;;;;;;5123420;27;20606;-80
2022/05/15 13:04:20;;;;;;;3.15;2.45;;;20.50;99.90;;;;;;5121154;27;20199;-80
2022/05/15 13:06:55;;;;;;;7.15;2.75;;;20.50;99.90;;;;;;5114987;27;20186;-80
2022/05/15 13:09:27;;;;;;;4.20;2.30;;;20.50;99.90;;;;;;5114717;27;20270;-80
2022/05/15 13:11:59;;;;;;;3.42;2.10;;;20.50;99.90;;;;;;5116525;27;20982;-81
2022/05/15 13:14:34;;;;;;;3.20;1.88;;;20.50;99.90;;;;;;5131688;27;20225;-80
2022/05/15 13:17:06;;;;;;;4.60;2.13;;;20.40;99.90;;;;;;5124431;27;20202;-80
2022/05/15 13:19:39;;;;;;;3.47;2.22;;;20.40;99.90;;;;;;5112804;27;20290;-80
2022/05/15 13:22:16;;;;;;;2.13;1.90;;;20.40;99.90;;;;;;5115000;27;20297;-81
2022/05/15 13:24:47;;;;;;;2.60;2.03;;;20.40;99.90;;;;;;5107851;27;20191;-81
2022/05/15 13:27:18;;;;;;;2.17;1.95;;;20.40;99.90;;;;;;5111625;27;20197;-82
2022/05/15 13:29:51;;;;;;;2.30;1.92;;;20.30;99.90;;;;;;5107628;27;20702;-81
2022/05/15 13:32:22;;;;;;;3.72;2.13;;;20.30;99.90;;;;;;5121579;27;20182;-81
2022/05/15 13:34:53;;;;;;;3.38;1.70;;;20.30;99.90;;;;;;5114586;27;20577;-81
2022/05/15 13:37:33;;;;;;;7.25;2.00;;;20.30;99.90;;;;;;5113950;27;20611;-80
2022/05/15 13:45:51;;;;;;;3.28;1.65;;;20.20;99.90;;;;;;5116775;27;20290;-83
2022/05/15 13:48:21;;;;;;;1.77;1.58;;;20.10;99.90;;;;;;5103106;27;20190;-83